Time;durP1;ratioP1;P1;durP2;ratioP2;P2;SDS_P1;SDS_P2;PMS_P1;PMS_P2;Temp;Humidity;BMP_temperature;BMP_pressure;BME280_temperature;BME280_humidity;BME280_pressure;Samples;Min_cycle;Max_cycle;Signal;HPM_P1;HPM_P2
2022/10/31 00:00:03;;;;;;;20.30;11.05;;;;;;;12.37;100.00;101878.50;5095535;28;20035;-86
2022/10/31 00:02:28;;;;;;;20.92;10.68;;;;;;;12.34;100.00;101878.91;5094572;28;20028;-85
2022/10/31 00:04:54;;;;;;;21.70;11.07;;;;;;;12.32;100.00;101876.41;5095468;28;20028;-85
2022/10/31 00:07:19;;;;;;;23.37;11.07;;;;;;;12.33;100.00;101877.22;5094916;28;20066;-85
2022/10/31 00:09:44;;;;;;;19.17;10.57;;;;;;;12.29;100.00;101876.81;5094798;28;20035;-85
2022/10/31 00:12:10;;;;;;;20.67;11.38;;;;;;;12.27;100.00;101877.00;5077729;28;20024;-86
2022/10/31 00:14:35;;;;;;;22.57;11.00;;;;;;;12.24;100.00;101882.88;5094534;28;20538;-85
2022/10/31 00:17:01;;;;;;;21.07;11.97;;;;;;;12.21;100.00;101872.38;5077426;28;20049;-85
2022/10/31 00:19:27;;;;;;;18.85;10.75;;;;;;;12.21;100.00;101883.28;5093626;28;20024;-85
2022/10/31 00:21:54;;;;;;;24.47;12.10;;;;;;;12.18;100.00;101872.78;5093935;28;20388;-85
2022/10/31 00:24:22;;;;;;;21.00;11.05;;;;;;;12.13;100.00;101869.81;5094103;28;20028;-85
2022/10/31 00:26:48;;;;;;;21.65;10.85;;;;;;;12.10;100.00;101881.94;5077484;28;20035;-85
2022/10/31 00:29:13;;;;;;;22.50;11.23;;;;;;;12.06;100.00;101879.81;5077415;28;20039;-85
2022/10/31 00:31:39;;;;;;;20.13;11.57;;;;;;;12.06;100.00;101879.81;5094031;28;20040;-85
2022/10/31 00:34:06;;;;;;;24.00;12.30;;;;;;;12.04;100.00;101877.28;5095444;28;20040;-85
2022/10/31 00:36:32;;;;;;;23.73;11.63;;;;;;;12.06;100.00;101882.53;5094202;28;20031;-86
2022/10/31 00:38:58;;;;;;;21.63;11.53;;;;;;;12.04;100.00;101876.47;5093753;28;20082;-85
2022/10/31 00:41:24;;;;;;;21.10;11.18;;;;;;;12.02;100.00;101867.69;5093888;28;20039;-85
2022/10/31 00:43:52;;;;;;;25.85;12.77;;;;;;;12.02;100.00;101868.50;5095058;28;20030;-85
2022/10/31 00:46:17;;;;;;;24.60;11.15;;;;;;;12.03;100.00;101870.19;5077179;28;20038;-85
2022/10/31 00:48:43;;;;;;;19.50;11.00;;;;;;;12.02;100.00;101873.13;5093212;28;20127;-85
2022/10/31 00:51:11;;;;;;;24.53;10.87;;;;;;;12.00;100.00;101865.16;5093363;28;20526;-85
2022/10/31 00:53:36;;;;;;;24.33;11.48;;;;;;;12.01;100.00;101863.28;5093541;28;20115;-85
2022/10/31 00:56:02;;;;;;;18.03;10.77;;;;;;;11.98;100.00;101867.22;5093532;28;20127;-85
2022/10/31 00:58:30;;;;;;;27.77;11.95;;;;;;;11.98;100.00;101860.94;5093363;28;20024;-85
2022/10/31 01:00:55;;;;;;;21.13;11.77;;;;;;;11.99;100.00;101870.78;5093402;28;20028;-85
2022/10/31 01:03:23;;;;;;;20.40;12.10;;;;;;;11.97;100.00;101870.97;5093558;28;20468;-84
2022/10/31 01:05:59;;;;;;;22.10;11.02;;;;;;;11.97;100.00;101870.13;5093142;28;20035;-85
2022/10/31 01:08:28;;;;;;;23.88;11.52;;;;;;;11.93;100.00;101856.94;5093602;28;20031;-85
2022/10/31 01:11:01;;;;;;;22.70;11.43;;;;;;;11.93;100.00;101853.41;5093480;28;20077;-85
2022/10/31 01:13:26;;;;;;;24.88;12.27;;;;;;;11.88;100.00;101851.22;5093347;28;20380;-85
2022/10/31 01:15:59;;;;;;;20.43;11.60;;;;;;;11.89;100.00;101838.47;5076335;28;20032;-85
2022/10/31 01:18:25;;;;;;;21.98;11.25;;;;;;;11.87;100.00;101844.13;5076315;28;20126;-85
2022/10/31 01:20:58;;;;;;;21.33;11.73;;;;;;;11.85;100.00;101851.63;5092779;28;20060;-85
2022/10/31 01:23:27;;;;;;;24.27;11.60;;;;;;;11.78;100.00;101850.75;5093058;28;20039;-85
2022/10/31 01:26:04;;;;;;;17.95;11.38;;;;;;;11.79;100.00;101851.59;5093112;28;20035;-85
2022/10/31 01:28:29;;;;;;;22.30;11.45;;;;;;;11.72;100.00;101846.09;5093544;28;20032;-85
2022/10/31 01:30:59;;;;;;;22.23;11.47;;;;;;;11.67;100.00;101846.69;5092962;28;20388;-85
2022/10/31 01:33:24;;;;;;;24.27;11.88;;;;;;;11.68;100.00;101853.00;5092855;28;20055;-85
2022/10/31 01:35:50;;;;;;;22.53;11.57;;;;;;;11.64;100.00;101865.28;5092978;28;20028;-85
2022/10/31 01:38:15;;;;;;;23.60;11.77;;;;;;;11.63;100.00;101867.16;5092951;28;20114;-85
2022/10/31 01:40:41;;;;;;;20.63;11.47;;;;;;;11.61;100.00;101866.53;5076353;28;20119;-85
2022/10/31 01:43:12;;;;;;;20.83;11.50;;;;;;;11.58;100.00;101862.31;5093102;28;20476;-86
2022/10/31 01:45:37;;;;;;;23.52;12.23;;;;;;;11.53;100.00;101863.94;5092739;28;20149;-86
2022/10/31 01:48:03;;;;;;;25.57;11.73;;;;;;;11.47;100.00;101862.88;5075421;28;20086;-86
2022/10/31 01:50:35;;;;;;;26.57;12.13;;;;;;;11.40;100.00;101861.97;5093375;28;20084;-85
2022/10/31 01:53:01;;;;;;;23.35;11.45;;;;;;;11.35;100.00;101859.84;5092389;28;20464;-86
2022/10/31 01:55:32;;;;;;;29.30;12.65;;;;;;;11.34;100.00;101865.47;5092412;28;20085;-86
2022/10/31 01:58:26;;;;;;;24.83;12.40;;;;;;;11.28;100.00;101858.94;5092726;28;20024;-86
2022/10/31 02:00:59;;;;;;;23.23;12.20;;;;;;;11.28;100.00;101849.94;5087330;28;20174;-85
2022/10/31 02:03:25;;;;;;;24.23;12.20;;;;;;;11.24;100.00;101853.03;5092691;28;20118;-86
2022/10/31 02:05:53;;;;;;;24.38;12.38;;;;;;;11.23;100.00;101848.66;5093828;28;20103;-85
2022/10/31 02:08:26;;;;;;;21.67;12.43;;;;;;;11.19;100.00;101849.22;5092525;28;20020;-85
2022/10/31 02:10:52;;;;;;;22.13;12.40;;;;;;;11.14;100.00;101851.69;5092518;28;20118;-85
2022/10/31 02:13:18;;;;;;;26.50;12.67;;;;;;;11.08;100.00;101849.75;5092590;28;20027;-85
2022/10/31 02:15:47;;;;;;;22.50;12.35;;;;;;;11.02;100.00;101844.06;5092604;28;20028;-86
2022/10/31 02:18:12;;;;;;;22.48;11.85;;;;;;;11.01;100.00;101846.97;5093380;28;20024;-85
2022/10/31 02:21:07;;;;;;;22.25;12.65;;;;;;;10.98;100.00;101850.06;5075241;28;20035;-85
2022/10/31 02:24:00;;;;;;;21.30;11.63;;;;;;;10.92;100.00;101840.81;5092588;28;20059;-85
2022/10/31 02:27:17;;;;;;;27.70;12.20;;;;;;;10.88;100.00;101839.56;5092503;28;20040;-85
2022/10/31 02:29:48;;;;;;;23.55;11.85;;;;;;;10.84;100.00;101847.22;5069407;28;20035;-85
2022/10/31 02:32:25;;;;;;;19.05;10.80;;;;;;;10.79;100.00;101836.13;5092215;28;20059;-85
2022/10/31 02:34:56;;;;;;;16.73;10.05;;;;;;;10.75;100.00;101842.97;5092518;28;20028;-85
2022/10/31 02:37:29;;;;;;;22.80;11.93;;;;;;;10.73;100.00;101850.44;5092429;28;20521;-86
2022/10/31 02:40:04;;;;;;;21.70;11.53;;;;;;;10.74;100.00;101843.16;5092216;28;20036;-85
2022/10/31 02:42:52;;;;;;;25.05;12.63;;;;;;;10.81;100.00;101844.91;5092303;28;20032;-86
2022/10/31 02:45:35;;;;;;;20.48;11.90;;;;;;;10.86;100.00;101847.03;5092334;28;20070;-86
2022/10/31 02:48:08;;;;;;;22.83;13.05;;;;;;;10.86;100.00;101844.31;5092048;28;20031;-85
2022/10/31 02:50:40;;;;;;;26.98;12.25;;;;;;;10.86;100.00;101837.00;5091860;28;20074;-85
2022/10/31 02:53:05;;;;;;;23.50;11.73;;;;;;;10.84;100.00;101832.81;5092253;28;20035;-85
2022/10/31 02:55:34;;;;;;;21.98;11.80;;;;;;;10.86;100.00;101847.03;5075133;28;20474;-85
2022/10/31 02:58:06;;;;;;;18.07;11.30;;;;;;;10.87;100.00;101837.88;5092010;28;20078;-85
2022/10/31 03:00:48;;;;;;;22.50;11.63;;;;;;;10.88;100.00;101842.28;5091812;28;20028;-85
2022/10/31 03:03:27;;;;;;;24.67;11.57;;;;;;;10.91;100.00;101844.59;5092405;28;20024;-86
2022/10/31 03:06:39;;;;;;;24.38;11.77;;;;;;;10.88;100.00;101837.66;5092016;28;20038;-85
2022/10/31 03:09:25;;;;;;;20.58;11.02;;;;;;;10.89;100.00;101843.94;5093330;28;20127;-86
2022/10/31 03:12:11;;;;;;;20.67;11.20;;;;;;;10.90;100.00;101840.19;5096666;28;20111;-85
2022/10/31 03:15:17;;;;;;;22.80;10.82;;;;;;;10.89;100.00;101841.22;5095653;28;20032;-85
2022/10/31 03:18:09;;;;;;;22.48;11.40;;;;;;;10.90;100.00;101842.91;5096778;28;20028;-85
2022/10/31 03:20:56;;;;;;;21.38;11.50;;;;;;;10.85;100.00;101834.47;5096845;28;20024;-85
2022/10/31 03:23:24;;;;;;;23.90;11.75;;;;;;;10.80;100.00;101836.94;5095989;28;20055;-85
2022/10/31 03:25:52;;;;;;;21.00;11.17;;;;;;;10.73;100.00;101836.88;5095395;28;20403;-86
2022/10/31 03:28:26;;;;;;;25.45;11.20;;;;;;;10.65;100.00;101840.53;5095523;28;20379;-85
2022/10/31 03:30:55;;;;;;;21.85;11.13;;;;;;;10.59;100.00;101835.88;5095276;28;20032;-85
2022/10/31 03:33:28;;;;;;;21.08;11.50;;;;;;;10.58;100.00;101841.50;5095208;28;20036;-85
2022/10/31 03:35:59;;;;;;;20.38;10.90;;;;;;;10.51;100.00;101844.13;5095395;28;20119;-85
2022/10/31 03:38:26;;;;;;;19.90;10.27;;;;;;;10.46;100.00;101844.72;5095301;28;20097;-85
2022/10/31 03:40:58;;;;;;;19.88;11.15;;;;;;;10.44;100.00;101840.53;5094878;28;20036;-85
2022/10/31 03:43:28;;;;;;;22.52;10.38;;;;;;;10.39;100.00;101846.50;5095076;28;20426;-85
2022/10/31 03:45:55;;;;;;;26.27;11.45;;;;;;;10.39;100.00;101841.06;5094992;28;20530;-85
2022/10/31 03:48:21;;;;;;;19.23;10.80;;;;;;;10.37;100.00;101836.88;5094247;28;20391;-85
2022/10/31 03:50:59;;;;;;;22.73;10.40;;;;;;;10.37;100.00;101835.00;5094028;28;20052;-86
2022/10/31 03:53:37;;;;;;;17.98;10.48;;;;;;;10.36;100.00;101833.31;5095339;28;20074;-86
2022/10/31 03:56:09;;;;;;;22.77;11.90;;;;;;;10.39;100.00;101830.22;5094842;28;20122;-85
2022/10/31 03:58:48;;;;;;;22.85;11.80;;;;;;;10.45;100.00;101828.63;5095858;28;20024;-86
2022/10/31 04:01:16;;;;;;;21.48;11.00;;;;;;;10.48;100.00;101836.38;5094909;28;20503;-85
2022/10/31 04:03:44;;;;;;;17.77;10.20;;;;;;;10.47;100.00;101830.13;5094563;28;20059;-86
2022/10/31 04:06:13;;;;;;;18.20;10.48;;;;;;;10.50;100.00;101835.16;5095578;28;20024;-85
2022/10/31 04:08:55;;;;;;;22.13;10.75;;;;;;;10.50;100.00;101835.16;5094115;28;20024;-85
2022/10/31 04:11:26;;;;;;;15.73;10.77;;;;;;;10.47;100.00;101837.44;5094789;28;20024;-85
2022/10/31 04:13:53;;;;;;;21.88;10.98;;;;;;;10.48;100.00;101833.66;5094838;28;20055;-85
2022/10/31 04:16:23;;;;;;;23.00;11.33;;;;;;;10.50;100.00;101843.31;5077123;28;20123;-86
2022/10/31 04:18:48;;;;;;;21.20;11.05;;;;;;;10.57;100.00;101837.09;5093630;28;20016;-85
2022/10/31 04:21:14;;;;;;;19.90;10.82;;;;;;;10.61;100.00;101838.41;5093788;28;20046;-85
2022/10/31 04:23:39;;;;;;;21.27;11.73;;;;;;;10.65;100.00;101837.84;5076996;28;20028;-85
2022/10/31 04:26:05;;;;;;;23.80;12.37;;;;;;;10.69;100.00;101835.59;5077296;28;20036;-85
2022/10/31 04:28:32;;;;;;;24.77;12.17;;;;;;;10.74;100.00;101845.88;5094163;28;20046;-85
2022/10/31 04:31:00;;;;;;;22.55;12.27;;;;;;;10.77;100.00;101846.31;5095253;28;20032;-86
2022/10/31 04:33:26;;;;;;;21.95;11.48;;;;;;;10.82;100.00;101845.72;5094169;28;20123;-85
2022/10/31 04:35:51;;;;;;;21.10;12.30;;;;;;;10.84;100.00;101843.69;5093806;28;20103;-85
2022/10/31 04:38:17;;;;;;;26.80;13.00;;;;;;;10.84;100.00;101841.81;5093841;28;20066;-85
2022/10/31 04:40:42;;;;;;;24.43;12.20;;;;;;;10.86;100.00;101847.03;5093885;28;20123;-85
2022/10/31 04:43:08;;;;;;;24.33;11.67;;;;;;;10.85;100.00;101843.50;5093749;28;20768;-86
2022/10/31 04:45:37;;;;;;;21.30;12.27;;;;;;;10.86;100.00;101842.44;5094001;28;20028;-86
2022/10/31 04:48:02;;;;;;;23.80;12.45;;;;;;;10.86;100.00;101838.88;5093483;28;20031;-86
2022/10/31 04:50:31;;;;;;;22.65;11.55;;;;;;;10.84;100.00;101833.66;5093020;28;20040;-85
2022/10/31 04:52:59;;;;;;;20.10;11.43;;;;;;;10.85;100.00;101835.34;5076716;28;20055;-86
2022/10/31 04:55:24;;;;;;;24.08;12.70;;;;;;;10.82;100.00;101841.16;5094622;28;20032;-85
2022/10/31 04:57:52;;;;;;;25.07;13.00;;;;;;;10.80;100.00;101843.22;5093402;28;20119;-86
2022/10/31 05:00:20;;;;;;;20.83;12.10;;;;;;;10.78;100.00;101845.28;5076657;28;20480;-85
2022/10/31 05:02:52;;;;;;;22.63;13.02;;;;;;;10.77;100.00;101834.63;5093518;28;20469;-86
2022/10/31 05:05:20;;;;;;;24.48;13.15;;;;;;;10.77;100.00;101838.16;5093507;28;20027;-86
2022/10/31 05:07:47;;;;;;;28.27;12.90;;;;;;;10.73;100.00;101830.59;5093140;28;20081;-85
2022/10/31 05:10:16;;;;;;;27.97;13.10;;;;;;;10.71;100.00;101837.06;5093419;28;20525;-85
2022/10/31 05:12:50;;;;;;;24.60;12.73;;;;;;;10.65;100.00;101832.41;5093342;28;20184;-85
2022/10/31 05:15:16;;;;;;;24.98;12.40;;;;;;;10.65;100.00;101834.28;5093557;28;20035;-86
2022/10/31 05:17:42;;;;;;;22.25;12.23;;;;;;;10.56;100.00;101825.41;5076268;28;20043;-86
2022/10/31 05:20:09;;;;;;;22.92;12.50;;;;;;;10.56;100.00;101832.72;5092609;28;20028;-85
2022/10/31 05:22:34;;;;;;;23.10;12.40;;;;;;;10.53;100.00;101832.06;5093164;28;20020;-85
2022/10/31 05:24:59;;;;;;;25.50;12.80;;;;;;;10.53;100.00;101823.09;5093106;28;20032;-85
2022/10/31 05:27:25;;;;;;;26.13;13.37;;;;;;;10.56;100.00;101822.72;5094066;28;20476;-86
2022/10/31 05:29:50;;;;;;;29.80;13.27;;;;;;;10.59;100.00;101816.91;5075757;28;20028;-86
2022/10/31 05:32:16;;;;;;;23.07;12.83;;;;;;;10.63;100.00;101818.19;5092596;28;20032;-85
2022/10/31 05:34:41;;;;;;;20.73;11.77;;;;;;;10.64;100.00;101814.44;5092902;28;20092;-86
2022/10/31 05:37:07;;;;;;;22.88;12.88;;;;;;;10.60;100.00;101810.44;5092633;28;20476;-86
2022/10/31 05:39:35;;;;;;;23.63;13.03;;;;;;;10.58;100.00;101809.78;5075876;28;20036;-86
2022/10/31 05:42:00;;;;;;;24.65;13.10;;;;;;;10.53;100.00;101814.97;5059141;28;20548;-86
2022/10/31 05:44:25;;;;;;;29.03;12.90;;;;;;;10.51;100.00;101817.88;5092951;28;20071;-86
2022/10/31 05:46:51;;;;;;;25.87;12.67;;;;;;;10.51;100.00;101817.88;5092674;28;20070;-86
2022/10/31 05:49:18;;;;;;;31.95;13.68;;;;;;;10.47;100.00;101803.00;5092786;28;20121;-86
2022/10/31 05:51:43;;;;;;;27.20;13.67;;;;;;;10.48;100.00;101806.53;5094206;28;20426;-86
2022/10/31 05:54:11;;;;;;;24.65;13.88;;;;;;;10.44;100.00;101808.81;5076165;28;20060;-85
2022/10/31 05:56:39;;;;;;;27.23;13.70;;;;;;;10.43;100.00;101798.97;5092556;28;20067;-86
2022/10/31 05:59:05;;;;;;;25.77;13.03;;;;;;;10.40;100.00;101793.09;5092417;28;20093;-86
2022/10/31 06:01:30;;;;;;;25.35;13.73;;;;;;;10.37;100.00;101807.03;5092185;28;20031;-86
2022/10/31 06:03:56;;;;;;;23.97;13.40;;;;;;;10.31;100.00;101790.47;5075731;28;20055;-86
2022/10/31 06:06:21;;;;;;;25.37;12.80;;;;;;;10.27;100.00;101789.16;5075572;28;20024;-87
2022/10/31 06:08:46;;;;;;;24.47;12.93;;;;;;;10.25;100.00;101790.38;5092718;28;20035;-86
2022/10/31 06:11:12;;;;;;;26.23;11.98;;;;;;;10.24;100.00;101788.69;5075870;28;20051;-85
2022/10/31 06:13:37;;;;;;;19.43;11.97;;;;;;;10.17;100.00;101786.75;5092498;28;20035;-86
2022/10/31 06:16:03;;;;;;;19.37;12.87;;;;;;;10.21;100.00;101799.94;5092523;28;20035;-86
2022/10/31 06:18:34;;;;;;;26.57;14.10;;;;;;;10.21;100.00;101786.38;5092676;28;20031;-85
2022/10/31 06:20:59;;;;;;;27.60;14.52;;;;;;;10.21;100.00;101794.50;5075157;28;20131;-86
2022/10/31 06:23:28;;;;;;;35.30;15.00;;;;;;;10.23;100.00;101795.16;5093093;28;20115;-85
2022/10/31 06:25:53;;;;;;;31.30;15.52;;;;;;;10.24;100.00;101788.69;5092298;28;20051;-86
2022/10/31 06:28:19;;;;;;;31.52;15.68;;;;;;;10.27;100.00;101791.03;5092248;28;20452;-86
2022/10/31 06:30:45;;;;;;;30.47;15.33;;;;;;;10.29;100.00;101794.38;5092110;28;20426;-85
2022/10/31 06:33:11;;;;;;;33.58;16.35;;;;;;;10.33;100.00;101803.81;5091899;28;20433;-86
2022/10/31 06:35:36;;;;;;;32.17;15.97;;;;;;;10.34;100.00;101803.66;5092493;28;20119;-85
2022/10/31 06:38:02;;;;;;;34.23;16.83;;;;;;;10.38;100.00;101800.56;5075291;28;20028;-86
2022/10/31 06:40:30;;;;;;;32.42;16.20;;;;;;;10.36;100.00;101803.47;5092468;28;20036;-86
2022/10/31 06:43:02;;;;;;;30.77;15.07;;;;;;;10.35;100.00;101801.81;5096026;28;20024;-83
2022/10/31 06:45:27;;;;;;;31.13;15.20;;;;;;;10.37;100.00;101805.16;5096164;28;20093;-83
2022/10/31 06:47:54;;;;;;;31.23;14.95;;;;;;;10.40;100.00;101804.78;5095858;28;20448;-83
2022/10/31 06:50:20;;;;;;;31.53;15.10;;;;;;;10.44;100.00;101797.13;5095391;28;20044;-82
2022/10/31 06:52:51;;;;;;;28.17;14.63;;;;;;;10.47;100.00;101794.84;5095871;28;20119;-83
2022/10/31 06:55:16;;;;;;;29.63;15.80;;;;;;;10.51;100.00;101798.88;5096720;28;20031;-81
2022/10/31 06:57:42;;;;;;;35.83;17.17;;;;;;;10.56;100.00;101795.56;5096006;28;20031;-81
2022/10/31 07:00:11;;;;;;;37.05;16.85;;;;;;;10.62;100.00;101799.41;5096814;28;20085;-86
2022/10/31 07:02:36;;;;;;;31.50;17.57;;;;;;;10.67;100.00;101795.06;5095406;28;20463;-87
2022/10/31 07:05:02;;;;;;;32.70;16.55;;;;;;;10.71;100.00;101795.50;5078430;28;20113;-87
2022/10/31 07:07:27;;;;;;;36.57;17.27;;;;;;;10.78;100.00;101803.75;5095442;28;20395;-86
2022/10/31 07:09:53;;;;;;;33.50;16.83;;;;;;;10.84;100.00;101795.66;5095239;28;20028;-86
2022/10/31 07:12:18;;;;;;;39.63;17.40;;;;;;;10.93;100.00;101801.78;5078008;28;20043;-86
2022/10/31 07:14:47;;;;;;;29.73;16.25;;;;;;;10.99;100.00;101797.47;5095313;28;20066;-86
2022/10/31 07:17:12;;;;;;;34.20;17.95;;;;;;;11.08;100.00;101800.88;5094715;28;20031;-86
2022/10/31 07:19:40;;;;;;;35.47;17.17;;;;;;;11.14;100.00;101800.94;5094375;28;20024;-86
2022/10/31 07:22:16;;;;;;;;;;;;;;;;;;;;;
2022/10/31 07:24:49;;;;;;;33.38;16.95;;;;;;;11.30;100.00;101804.41;5096689;28;20498;-86
2022/10/31 07:27:16;;;;;;;36.67;17.97;;;;;;;11.36;100.00;101801.72;5095451;28;20070;-86
2022/10/31 07:29:49;;;;;;;33.42;17.17;;;;;;;11.45;100.00;101804.31;5095072;28;20073;-85
2022/10/31 07:32:14;;;;;;;31.85;16.27;;;;;;;11.50;100.00;101801.81;5095926;28;20101;-85
2022/10/31 07:34:40;;;;;;;34.17;17.20;;;;;;;11.59;100.00;101806.91;5094601;28;20484;-85
2022/10/31 07:37:11;;;;;;;31.97;17.47;;;;;;;11.67;100.00;101810.53;5096489;28;20036;-86
2022/10/31 07:39:36;;;;;;;33.38;16.88;;;;;;;11.72;100.00;101814.34;5093973;28;20024;-86
2022/10/31 07:42:02;;;;;;;31.63;17.53;;;;;;;11.79;100.00;101806.19;5094781;28;20090;-86
2022/10/31 07:44:27;;;;;;;31.08;16.92;;;;;;;11.83;100.00;101806.66;5077690;28;20036;-86
2022/10/31 07:46:55;;;;;;;32.23;17.63;;;;;;;11.85;100.00;101807.28;5094156;28;20424;-86
2022/10/31 07:49:21;;;;;;;30.95;18.33;;;;;;;11.89;100.00;101806.69;5093347;28;20544;-86
2022/10/31 07:51:49;;;;;;;35.30;17.43;;;;;;;11.97;100.00;101810.31;5093912;28;20039;-86
2022/10/31 07:54:16;;;;;;;34.22;18.35;;;;;;;12.00;100.00;101809.91;5076382;28;20074;-86
2022/10/31 07:56:46;;;;;;;34.22;18.23;;;;;;;12.09;100.00;101812.25;5060996;28;20122;-86
2022/10/31 07:59:13;;;;;;;36.23;17.70;;;;;;;12.19;100.00;101816.47;5094886;28;20119;-86
2022/10/31 08:01:39;;;;;;;30.05;17.27;;;;;;;12.31;100.00;101811.31;5094063;28;20082;-86
2022/10/31 08:04:07;;;;;;;36.17;18.00;;;;;;;12.42;100.00;101811.56;5077999;28;20036;-86
2022/10/31 08:06:34;;;;;;;38.37;18.47;;;;;;;12.50;100.00;101813.25;5094582;28;20028;-86
2022/10/31 08:09:06;;;;;;;38.35;19.42;;;;;;;12.62;100.00;101819.78;5094136;28;20046;-86
2022/10/31 08:11:32;;;;;;;38.85;19.90;;;;;;;12.75;100.00;101818.97;5094520;28;20031;-85
2022/10/31 08:13:57;;;;;;;34.13;18.43;;;;;;;12.86;100.00;101811.22;5093944;28;20475;-86
2022/10/31 08:16:26;;;;;;;45.73;19.83;;;;;;;12.94;100.00;101814.59;5094187;28;20028;-85
2022/10/31 08:18:55;;;;;;;35.30;19.27;;;;;;;13.03;100.00;101815.25;5094173;28;20368;-86
2022/10/31 08:21:21;;;;;;;40.65;20.23;;;;;;;13.15;100.00;101807.28;5093604;28;20036;-86
2022/10/31 08:23:47;;;;;;;38.42;19.65;;;;;;;13.26;100.00;101803.94;5093963;28;20050;-86
2022/10/31 08:26:12;;;;;;;36.93;20.17;;;;;;;13.39;100.00;101799.56;5093969;28;20032;-86
2022/10/31 08:28:38;;;;;;;40.27;20.37;;;;;;;13.56;100.00;101811.69;5093727;28;20035;-86
2022/10/31 08:31:04;;;;;;;39.80;19.53;;;;;;;13.71;100.00;101822.38;5094202;28;20271;-86
2022/10/31 08:33:30;;;;;;;35.40;19.83;;;;;;;13.82;100.00;101807.25;5093601;28;20032;-85
2022/10/31 08:35:58;;;;;;;37.33;20.20;;;;;;;13.86;100.00;101800.31;5076991;28;20024;-85
2022/10/31 08:38:26;;;;;;;37.33;20.08;;;;;;;13.93;100.00;101797.56;5093471;28;20048;-85
2022/10/31 08:40:53;;;;;;;35.47;20.73;;;;;;;13.90;100.00;101774.28;5076780;28;20127;-86
2022/10/31 08:43:27;;;;;;;36.10;20.20;;;;;;;13.95;100.00;101759.97;5093648;28;20032;-88
2022/10/31 08:45:54;;;;;;;36.90;20.38;;;;;;;14.00;100.00;101757.47;5110768;28;20032;-86
2022/10/31 08:48:20;;;;;;;36.35;19.85;;;;;;;14.11;100.00;101766.84;5075937;28;20081;-86
2022/10/31 08:50:48;;;;;;;38.58;20.80;;;;;;;14.17;100.00;101755.06;5092518;28;20035;-86
2022/10/31 08:53:17;;;;;;;34.75;19.80;;;;;;;14.25;100.00;101762.19;5093527;28;20036;-86
2022/10/31 08:55:45;;;;;;;32.37;19.30;;;;;;;14.36;100.00;101784.19;5093237;28;20028;-86
2022/10/31 08:58:15;;;;;;;35.83;18.50;;;;;;;14.40;100.00;101787.28;5093306;28;20024;-86
2022/10/31 09:00:42;;;;;;;33.75;18.58;;;;;;;14.43;100.00;101773.22;5095207;28;20036;-86
2022/10/31 09:03:20;;;;;;;34.42;18.73;;;;;;;14.50;100.00;101784.94;5085426;28;20059;-87
2022/10/31 09:05:48;;;;;;;31.45;17.92;;;;;;;14.59;100.00;101771.03;5071897;28;20062;-89
2022/10/31 09:08:15;;;;;;;39.97;22.60;;;;;;;14.65;100.00;101775.63;5073094;28;20103;-87
2022/10/31 09:10:41;;;;;;;35.15;19.25;;;;;;;14.70;100.00;101781.25;5092049;28;20123;-87
2022/10/31 09:13:18;;;;;;;36.47;18.90;;;;;;;14.82;100.00;101778.66;5074600;28;20132;-87
2022/10/31 09:15:47;;;;;;;36.53;18.58;;;;;;;14.87;100.00;101771.47;5093130;28;20057;-86
2022/10/31 09:18:15;;;;;;;34.00;18.83;;;;;;;14.96;100.00;101784.88;5076365;28;20460;-87
2022/10/31 09:20:49;;;;;;;35.87;19.07;;;;;;;15.02;100.00;101768.41;5092696;28;20058;-86
2022/10/31 09:23:20;;;;;;;29.95;18.52;;;;;;;15.13;100.00;101763.28;5091961;28;20095;-87
2022/10/31 09:25:49;;;;;;;36.47;19.63;;;;;;;15.26;100.00;101742.16;5088872;28;20384;-86
2022/10/31 09:28:23;;;;;;;28.92;17.55;;;;;;;15.45;100.00;101739.44;5089111;28;20093;-86
2022/10/31 09:30:57;;;;;;;34.05;18.33;;;;;;;15.48;100.00;101733.50;5076642;28;20063;-87
2022/10/31 09:33:22;;;;;;;30.43;19.30;;;;;;;15.58;100.00;101722.88;5093119;28;20039;-88
2022/10/31 09:35:48;;;;;;;36.30;18.77;;;;;;;15.67;100.00;101728.88;5092559;28;20024;-87
2022/10/31 09:38:20;;;;;;;36.90;18.83;;;;;;;15.72;100.00;101700.84;5092780;28;20020;-86
2022/10/31 09:41:07;;;;;;;28.90;18.08;;;;;;;15.78;100.00;101702.69;5091131;28;20043;-87
2022/10/31 09:43:56;;;;;;;35.10;18.02;;;;;;;15.78;100.00;101714.47;5073636;28;20099;-87
2022/10/31 09:46:58;;;;;;;31.33;18.13;;;;;;;15.73;100.00;101732.59;5073533;28;20060;-86
2022/10/31 09:50:15;;;;;;;32.20;19.00;;;;;;;15.74;100.00;101720.59;5072433;28;20035;-88
2022/10/31 09:52:48;;;;;;;35.75;17.63;;;;;;;15.69;100.00;101718.53;5059576;28;20040;-86
2022/10/31 09:55:36;;;;;;;34.08;19.05;;;;;;;15.76;100.00;101708.34;5076546;28;20081;-87
2022/10/31 09:58:02;;;;;;;38.03;19.17;;;;;;;15.78;100.00;101703.53;5092126;28;20028;-87
2022/10/31 10:00:27;;;;;;;32.23;19.47;;;;;;;15.86;100.00;101720.72;5091900;28;20028;-87
2022/10/31 10:02:57;;;;;;;37.38;20.17;;;;;;;15.97;100.00;101708.97;5093293;28;20379;-88
2022/10/31 10:05:50;;;;;;;40.47;20.30;;;;;;;16.30;100.00;101692.09;5092163;28;20032;-86
2022/10/31 10:08:22;;;;;;;35.90;19.70;;;;;;;16.59;98.26;101677.75;5093509;28;20028;-87
2022/10/31 10:10:53;;;;;;;32.63;18.60;;;;;;;16.93;96.44;101681.66;5092568;28;20031;-86
2022/10/31 10:13:35;;;;;;;34.00;19.20;;;;;;;17.20;95.20;101675.69;5092031;28;20040;-86
2022/10/31 10:16:23;;;;;;;30.17;18.15;;;;;;;17.23;93.01;101672.47;5093200;28;20032;-86
2022/10/31 10:19:31;;;;;;;35.58;18.70;;;;;;;17.17;94.12;101674.25;5096198;28;20038;-86
2022/10/31 10:22:04;;;;;;;31.30;18.10;;;;;;;17.01;93.30;101669.50;5096041;28;20487;-86
2022/10/31 10:24:47;;;;;;;38.83;18.80;;;;;;;17.05;92.58;101648.75;5097194;28;20054;-86
2022/10/31 10:27:33;;;;;;;29.38;18.05;;;;;;;17.22;92.94;101648.03;5096685;28;20540;-86
2022/10/31 10:30:14;;;;;;;37.67;19.45;;;;;;;17.18;91.64;101644.91;5096377;28;20042;-86
2022/10/31 10:32:55;;;;;;;38.97;21.00;;;;;;;17.13;92.31;101651.09;5096099;28;20118;-86
2022/10/31 10:35:31;;;;;;;44.70;20.67;;;;;;;17.05;92.14;101658.88;5096017;28;20127;-87
2022/10/31 10:38:18;;;;;;;41.58;20.73;;;;;;;17.00;91.72;101662.31;5096087;28;20024;-86
2022/10/31 10:40:46;;;;;;;46.83;22.25;;;;;;;17.09;91.59;101671.03;5096298;28;20483;-87
2022/10/31 10:43:36;;;;;;;42.65;21.50;;;;;;;17.14;91.31;101669.25;5096033;28;20050;-86
2022/10/31 10:49:13;;;;;;;40.37;21.60;;;;;;;17.26;90.67;101657.41;5097121;28;20070;-86
2022/10/31 10:51:59;;;;;;;38.30;20.65;;;;;;;17.40;90.71;101653.34;5095150;28;20056;-86
2022/10/31 10:55:00;;;;;;;36.45;21.52;;;;;;;17.45;90.45;101642.50;5096085;28;20044;-86
2022/10/31 10:57:35;;;;;;;39.97;22.20;;;;;;;17.57;90.37;101638.84;5072342;28;20043;-86
2022/10/31 11:00:17;;;;;;;43.90;21.70;;;;;;;17.58;89.39;101635.88;5096152;28;20020;-86
2022/10/31 11:02:43;;;;;;;38.60;21.27;;;;;;;17.70;88.50;101633.94;5095865;28;20380;-86
2022/10/31 11:05:24;;;;;;;41.53;22.23;;;;;;;17.83;88.72;101643.81;5096733;28;20020;-86
2022/10/31 11:07:50;;;;;;;46.30;22.17;;;;;;;17.99;87.51;101638.63;5097426;28;20039;-86
2022/10/31 11:10:19;;;;;;;40.38;21.75;;;;;;;18.15;86.77;101635.06;5078307;28;20028;-86
2022/10/31 11:13:12;;;;;;;39.10;21.37;;;;;;;18.33;87.31;101630.44;5096496;28;20040;-86
2022/10/31 11:16:01;;;;;;;39.30;20.50;;;;;;;18.43;86.17;101625.13;5095642;28;20101;-86
2022/10/31 11:18:30;;;;;;;37.83;20.77;;;;;;;18.61;84.36;101617.72;5095339;28;20028;-86
2022/10/31 11:21:06;;;;;;;43.05;21.80;;;;;;;18.52;84.09;101618.13;5094964;28;20042;-86
2022/10/31 11:23:35;;;;;;;38.53;21.45;;;;;;;18.41;84.46;101594.31;5095074;28;20132;-86